createdAt,value
2023-04-09T00:01:15.636Z,8.25
2023-04-09T00:03:17.302Z,8.00
2023-04-09T00:05:18.871Z,8.07
2023-04-09T00:07:20.484Z,8.48
2023-04-09T00:09:22.034Z,8.63
2023-04-09T00:11:23.605Z,9.25
2023-04-09T00:13:31.910Z,8.73
2023-04-09T00:15:42.075Z,8.30
2023-04-09T00:17:43.786Z,9.53
2023-04-09T00:19:45.373Z,9.63
2023-04-09T00:21:47.297Z,9.07
2023-04-09T00:23:48.873Z,8.82
2023-04-09T00:25:50.462Z,9.00
2023-04-09T00:27:52.016Z,8.33
2023-04-09T00:29:53.820Z,9.80
2023-04-09T00:31:56.842Z,9.53
2023-04-09T00:33:58.503Z,9.10
2023-04-09T00:36:00.139Z,9.73
2023-04-09T00:38:01.863Z,8.60
2023-04-09T00:40:04.209Z,9.60
2023-04-09T00:42:05.801Z,9.25
2023-04-09T00:44:07.359Z,11.25
2023-04-09T00:46:08.936Z,10.30
2023-04-09T00:48:12.611Z,9.03
2023-04-09T00:50:14.147Z,9.03
2023-04-09T00:52:15.710Z,10.20
2023-04-09T00:54:17.368Z,10.55
2023-04-09T00:56:21.880Z,9.00
2023-04-09T00:58:23.454Z,10.40
2023-04-09T01:00:29.110Z,10.57
2023-04-09T01:02:30.949Z,10.70
2023-04-09T01:04:34.253Z,9.43
2023-04-09T01:06:42.330Z,10.18
2023-04-09T01:08:51.761Z,9.50
2023-04-09T01:11:02.654Z,11.10
2023-04-09T01:13:09.934Z,10.25
2023-04-09T01:15:15.355Z,9.50
2023-04-09T01:17:22.021Z,11.63
2023-04-09T01:19:43.789Z,11.07
2023-04-09T01:21:45.946Z,11.03
2023-04-09T01:23:57.021Z,11.00
2023-04-09T01:26:04.413Z,9.95
2023-04-09T01:28:16.236Z,10.30
2023-04-09T01:30:18.745Z,10.70
2023-04-09T01:32:22.086Z,10.32
2023-04-09T01:34:24.315Z,10.50
2023-04-09T01:36:26.853Z,11.15
2023-04-09T01:38:28.391Z,11.43
2023-04-09T01:40:30.282Z,9.80
2023-04-09T01:42:32.875Z,10.18
2023-04-09T01:44:38.330Z,11.50
2023-04-09T01:46:40.657Z,9.73
2023-04-09T01:48:43.511Z,11.38
2023-04-09T01:50:45.347Z,11.20
2023-04-09T01:52:47.298Z,9.75
2023-04-09T01:54:49.129Z,10.10
2023-04-09T01:56:50.639Z,11.20
2023-04-09T01:58:52.554Z,11.07
2023-04-09T02:01:01.052Z,11.30
2023-04-09T02:03:08.216Z,11.63
2023-04-09T02:05:12.022Z,10.50
2023-04-09T02:07:27.868Z,10.88
2023-04-09T02:09:31.562Z,10.68
2023-04-09T02:11:34.450Z,12.50
2023-04-09T02:13:37.522Z,12.10
2023-04-09T02:15:40.456Z,10.95
2023-04-09T02:17:43.475Z,11.48
2023-04-09T02:19:46.509Z,12.02
2023-04-09T02:21:48.038Z,12.10
2023-04-09T02:23:49.642Z,12.18
2023-04-09T02:25:52.518Z,13.73
2023-04-09T02:27:54.040Z,13.75
2023-04-09T02:29:55.597Z,12.35
2023-04-09T02:31:57.244Z,11.85
2023-04-09T02:34:00.099Z,12.98
2023-04-09T02:36:01.724Z,14.05
2023-04-09T02:38:03.725Z,12.18
2023-04-09T02:40:06.486Z,14.32
2023-04-09T02:42:08.107Z,13.68
2023-04-09T02:44:09.738Z,12.10
2023-04-09T02:46:11.380Z,12.60
2023-04-09T02:48:12.967Z,12.38
2023-04-09T02:50:15.923Z,11.93
2023-04-09T02:52:17.523Z,11.35
2023-04-09T02:54:19.103Z,13.63
2023-04-09T02:56:20.666Z,13.45
2023-04-09T02:58:22.199Z,12.65
2023-04-09T03:00:23.908Z,12.50
2023-04-09T03:02:25.598Z,12.75
2023-04-09T03:04:27.312Z,12.25
2023-04-09T03:06:33.092Z,12.82
2023-04-09T03:08:34.609Z,11.82
2023-04-09T03:10:36.192Z,13.20
2023-04-09T03:12:37.793Z,13.30
2023-04-09T03:14:39.366Z,13.88
2023-04-09T03:16:40.845Z,13.00
2023-04-09T03:18:42.472Z,13.38
2023-04-09T03:20:44.095Z,13.20
2023-04-09T03:22:46.997Z,13.57
2023-04-09T03:24:48.643Z,12.43
2023-04-09T03:26:50.289Z,12.18
2023-04-09T03:28:51.961Z,14.25
2023-04-09T03:30:53.710Z,14.65
2023-04-09T03:32:55.333Z,12.90
2023-04-09T03:34:56.888Z,13.35
2023-04-09T03:36:58.465Z,13.93
2023-04-09T03:39:01.354Z,12.82
2023-04-09T03:41:02.907Z,12.52
2023-04-09T03:43:04.538Z,12.65
2023-04-09T03:45:06.923Z,12.50
2023-04-09T03:47:08.423Z,13.73
2023-04-09T03:49:09.957Z,12.93
2023-04-09T03:51:12.033Z,13.85
2023-04-09T03:53:13.597Z,13.52
2023-04-09T03:55:16.567Z,13.25
2023-04-09T03:57:18.047Z,13.77
2023-04-09T03:59:19.538Z,14.27
2023-04-09T04:01:21.115Z,14.10
2023-04-09T04:03:22.668Z,13.27
2023-04-09T04:05:24.635Z,13.57
2023-04-09T04:07:26.279Z,13.85
2023-04-09T04:09:27.818Z,13.70
2023-04-09T04:11:31.159Z,13.48
2023-04-09T04:13:32.770Z,12.98
2023-04-09T04:15:34.409Z,13.68
2023-04-09T04:17:35.970Z,14.00
2023-04-09T04:19:37.499Z,15.02
2023-04-09T04:21:39.067Z,13.55
2023-04-09T04:23:40.629Z,14.48
2023-04-09T04:25:42.643Z,13.75
2023-04-09T04:27:45.538Z,13.85
2023-04-09T04:29:47.033Z,12.68
2023-04-09T04:31:48.623Z,14.85
2023-04-09T04:33:50.205Z,13.75
2023-04-09T04:35:51.814Z,13.15
2023-04-09T04:37:53.347Z,13.75
2023-04-09T04:39:54.878Z,13.95
2023-04-09T04:41:56.392Z,14.20
2023-04-09T04:43:59.256Z,14.60
2023-04-09T04:46:00.859Z,13.70
2023-04-09T04:48:02.409Z,13.13
2023-04-09T04:50:04.795Z,16.17
2023-04-09T04:52:06.380Z,15.25
2023-04-09T04:54:07.916Z,15.05
2023-04-09T04:56:13.061Z,14.18
2023-04-09T04:58:14.653Z,15.05
2023-04-09T05:00:17.576Z,15.77
2023-04-09T05:02:19.406Z,15.48
2023-04-09T05:04:21.174Z,17.00
2023-04-09T05:06:22.774Z,17.73
2023-04-09T05:08:24.292Z,17.42
2023-04-09T05:10:26.026Z,18.45
2023-04-09T05:12:27.514Z,17.63
2023-04-09T05:14:29.076Z,16.23
2023-04-09T05:16:33.194Z,17.08
2023-04-09T05:18:34.814Z,17.83
2023-04-09T05:20:36.399Z,16.13
2023-04-09T05:22:37.947Z,15.40
2023-04-09T05:24:39.485Z,15.73
2023-04-09T05:26:41.066Z,17.90
2023-04-09T05:28:42.640Z,17.10
2023-04-09T05:30:46.387Z,16.38
2023-04-09T05:32:49.558Z,15.95
2023-04-09T05:34:51.194Z,15.50
2023-04-09T05:36:53.883Z,15.20
2023-04-09T05:38:55.747Z,16.30
2023-04-09T05:40:57.573Z,17.55
2023-04-09T05:42:59.098Z,19.08
2023-04-09T05:45:00.635Z,18.20
2023-04-09T05:47:02.263Z,16.90
2023-04-09T05:49:05.187Z,17.77
2023-04-09T05:51:06.815Z,16.25
2023-04-09T05:53:08.346Z,17.52
2023-04-09T05:55:10.123Z,15.80
2023-04-09T05:57:11.679Z,17.17
2023-04-09T05:59:13.229Z,16.77
2023-04-09T06:01:14.769Z,16.90
2023-04-09T06:03:16.464Z,16.60
2023-04-09T06:05:19.503Z,18.40
2023-04-09T06:07:21.052Z,18.20
2023-04-09T06:09:22.666Z,16.55
2023-04-09T06:11:24.211Z,17.10
2023-04-09T06:13:25.786Z,17.23
2023-04-09T06:15:27.776Z,17.20
2023-04-09T06:17:29.401Z,16.40
2023-04-09T06:19:30.987Z,16.02
2023-04-09T06:21:34.179Z,17.25
2023-04-09T06:23:36.632Z,17.10
2023-04-09T06:25:38.192Z,16.30
2023-04-09T06:27:39.788Z,17.27
2023-04-09T06:29:41.278Z,16.80
2023-04-09T06:31:43.013Z,15.98
2023-04-09T06:33:44.747Z,18.35
2023-04-09T06:35:46.405Z,16.83
2023-04-09T06:37:49.362Z,18.08
2023-04-09T06:40:00.668Z,17.33
2023-04-09T06:42:03.308Z,16.90
2023-04-09T06:44:04.866Z,17.63
2023-04-09T06:46:06.821Z,16.58
2023-04-09T06:48:08.554Z,17.08
2023-04-09T06:50:10.542Z,16.55
2023-04-09T06:52:12.108Z,17.13
2023-04-09T06:54:15.021Z,16.65
2023-04-09T06:56:16.643Z,16.83
2023-04-09T06:58:18.252Z,16.23
2023-04-09T07:00:19.787Z,16.08
2023-04-09T07:02:21.647Z,17.23
2023-04-09T07:04:23.350Z,17.00
2023-04-09T07:06:25.084Z,16.15
2023-04-09T07:08:26.922Z,17.10
2023-04-09T07:10:29.870Z,16.55
2023-04-09T07:12:32.578Z,16.13
2023-04-09T07:14:34.121Z,17.70
2023-04-09T07:16:35.692Z,17.02
2023-04-09T07:18:37.252Z,16.80
2023-04-09T07:20:38.803Z,17.42
2023-04-09T07:22:40.406Z,16.25
2023-04-09T07:24:41.994Z,16.50
2023-04-09T07:26:44.900Z,16.70
2023-04-09T07:28:46.485Z,16.90
2023-04-09T07:30:48.028Z,16.97
2023-04-09T07:32:49.785Z,15.40
2023-04-09T07:34:51.799Z,15.93
2023-04-09T07:36:53.356Z,17.13
2023-04-09T07:38:55.215Z,18.27
2023-04-09T07:40:57.066Z,16.65
2023-04-09T07:42:59.973Z,16.98
2023-04-09T07:45:01.552Z,16.92
2023-04-09T07:47:03.931Z,16.98
2023-04-09T07:49:05.516Z,15.93
2023-04-09T07:51:07.414Z,15.10
2023-04-09T07:53:08.993Z,15.27
2023-04-09T07:55:10.586Z,16.13
2023-04-09T07:57:12.154Z,15.80
2023-04-09T07:59:15.450Z,15.43
2023-04-09T08:01:17.197Z,16.75
2023-04-09T08:03:19.078Z,14.20
2023-04-09T08:05:21.185Z,13.93
2023-04-09T08:07:22.982Z,16.53
2023-04-09T08:09:24.668Z,14.97
2023-04-09T08:11:26.296Z,14.73
2023-04-09T08:13:27.900Z,15.70
2023-04-09T08:15:30.747Z,15.00
2023-04-09T08:17:32.386Z,14.90
2023-04-09T08:19:33.997Z,13.40
2023-04-09T08:21:37.224Z,14.15
2023-04-09T08:23:38.871Z,14.93
2023-04-09T08:25:40.417Z,15.50
2023-04-09T08:27:42.008Z,14.88
2023-04-09T08:29:43.552Z,15.37
2023-04-09T08:31:46.470Z,12.10
2023-04-09T08:33:47.993Z,13.53
2023-04-09T08:35:49.644Z,14.97
2023-04-09T08:37:51.212Z,13.80
2023-04-09T08:39:52.742Z,15.40
2023-04-09T08:41:58.437Z,12.40
2023-04-09T08:44:00.273Z,12.10
2023-04-09T08:46:01.998Z,12.90
2023-04-09T08:48:08.441Z,11.93
2023-04-09T08:50:10.620Z,12.57
2023-04-09T08:52:12.121Z,12.00
2023-04-09T08:54:15.680Z,12.00
2023-04-09T08:56:17.267Z,12.17
2023-04-09T08:58:18.802Z,12.33
2023-04-09T09:00:20.524Z,12.23
2023-04-09T09:02:22.347Z,12.57
2023-04-09T09:04:25.513Z,14.13
2023-04-09T09:06:28.565Z,12.40
2023-04-09T09:08:30.137Z,12.10
2023-04-09T09:10:37.564Z,11.33
2023-04-09T09:12:41.210Z,12.43
2023-04-09T09:14:42.688Z,12.50
2023-04-09T09:17:02.842Z,11.47
2023-04-09T09:19:04.448Z,11.60
2023-04-09T09:21:14.366Z,12.27
2023-04-09T09:23:17.959Z,13.30
2023-04-09T09:25:19.944Z,12.00
2023-04-09T09:27:33.110Z,12.80
2023-04-09T09:29:41.839Z,12.57
2023-04-09T09:31:47.224Z,12.50
2023-04-09T09:33:49.127Z,12.20
2023-04-09T09:35:52.041Z,12.97
2023-04-09T09:38:04.653Z,11.47
2023-04-09T09:40:07.911Z,12.80
2023-04-09T09:42:09.485Z,11.93
2023-04-09T09:44:12.699Z,11.40
2023-04-09T09:46:15.509Z,11.93
2023-04-09T09:48:17.173Z,11.93
2023-04-09T09:50:20.016Z,11.27
2023-04-09T09:52:25.536Z,10.80
2023-04-09T09:54:35.562Z,10.67
2023-04-09T09:56:38.982Z,10.40
2023-04-09T09:58:44.014Z,11.03
2023-04-09T10:00:47.720Z,10.60
2023-04-09T10:02:56.741Z,15.37
2023-04-09T10:05:01.210Z,12.30
2023-04-09T10:07:05.321Z,10.80
2023-04-09T10:09:07.323Z,9.67
2023-04-09T10:11:10.407Z,9.60
2023-04-09T10:13:16.187Z,11.40
2023-04-09T10:15:18.497Z,9.90
2023-04-09T10:17:20.193Z,10.13
2023-04-09T10:19:22.129Z,11.17
2023-04-09T10:21:32.710Z,11.10
2023-04-09T10:23:38.781Z,10.20
2023-04-09T10:25:41.676Z,10.13
2023-04-09T10:27:44.888Z,8.90
2023-04-09T10:29:47.676Z,10.67
2023-04-09T10:31:52.830Z,9.43
2023-04-09T10:33:54.408Z,9.93
2023-04-09T10:36:00.078Z,9.23
2023-04-09T10:38:01.652Z,9.77
2023-04-09T10:40:03.973Z,9.47
2023-04-09T10:42:11.538Z,8.63
2023-04-09T10:44:25.014Z,20.57
2023-04-09T10:46:28.784Z,12.80
2023-04-09T10:48:33.266Z,12.03
2023-04-09T10:50:34.801Z,11.87
2023-04-09T10:52:40.629Z,10.30
2023-04-09T10:54:46.136Z,10.90
2023-04-09T10:57:12.426Z,9.13
2023-04-09T10:59:13.968Z,9.70
2023-04-09T11:01:23.071Z,10.27
2023-04-09T11:03:26.308Z,9.87
2023-04-09T11:05:33.874Z,9.40
2023-04-09T11:07:44.702Z,8.53
2023-04-09T11:09:47.530Z,9.80
2023-04-09T11:11:53.108Z,8.43
2023-04-09T11:13:59.011Z,8.90
2023-04-09T11:16:00.625Z,8.77
2023-04-09T11:18:03.727Z,9.00
2023-04-09T11:20:06.535Z,8.57
2023-04-09T11:22:08.119Z,9.70
2023-04-09T11:24:11.889Z,8.90
2023-04-09T11:26:13.468Z,9.50
2023-04-09T11:28:15.091Z,8.20
2023-04-09T11:30:17.037Z,9.23
2023-04-09T11:32:20.601Z,9.70
2023-04-09T11:34:27.624Z,9.83
2023-04-09T11:36:29.343Z,10.83
2023-04-09T11:38:31.645Z,8.40
2023-04-09T11:40:33.319Z,9.30
2023-04-09T11:42:34.933Z,9.50
2023-04-09T11:44:36.526Z,8.77
2023-04-09T11:46:38.849Z,9.50
2023-04-09T11:48:40.589Z,7.90
2023-04-09T11:50:43.720Z,9.43
2023-04-09T11:52:45.760Z,8.70
2023-04-09T11:54:48.977Z,10.33
2023-04-09T11:56:50.528Z,8.40
2023-04-09T11:58:54.910Z,7.87
2023-04-09T12:00:58.715Z,8.63
2023-04-09T12:03:02.953Z,8.80
2023-04-09T12:05:05.525Z,6.87
2023-04-09T12:07:09.513Z,7.47
2023-04-09T12:09:11.053Z,6.93
2023-04-09T12:11:15.268Z,6.00
2023-04-09T12:13:16.824Z,8.13
2023-04-09T12:15:19.869Z,7.53
2023-04-09T12:17:21.430Z,6.70
2023-04-09T12:19:25.518Z,7.20
2023-04-09T12:21:45.374Z,6.30
2023-04-09T12:23:48.347Z,5.90
2023-04-09T12:25:49.904Z,6.63
2023-04-09T12:27:51.406Z,6.50
2023-04-09T12:29:52.957Z,5.70
2023-04-09T12:31:54.564Z,6.20
2023-04-09T12:33:56.242Z,5.17
2023-04-09T12:35:57.779Z,5.87
2023-04-09T12:37:59.488Z,5.10
2023-04-09T12:40:02.570Z,5.90
2023-04-09T12:42:04.181Z,5.20
2023-04-09T12:44:05.834Z,5.53
2023-04-09T12:46:07.434Z,5.10
2023-04-09T12:48:09.050Z,5.70
2023-04-09T12:50:12.442Z,6.10
2023-04-09T12:52:13.962Z,5.37
2023-04-09T12:54:15.452Z,5.27
2023-04-09T12:56:18.380Z,5.87
2023-04-09T12:58:19.967Z,5.80
2023-04-09T13:00:21.459Z,5.53
2023-04-09T13:02:23.583Z,5.13
2023-04-09T13:04:25.266Z,5.37
2023-04-09T13:06:27.047Z,6.00
2023-04-09T13:08:28.588Z,6.13
2023-04-09T13:10:31.304Z,6.43
2023-04-09T13:12:34.186Z,5.87
2023-04-09T13:14:35.796Z,7.60
2023-04-09T13:16:41.059Z,5.17
2023-04-09T13:18:42.614Z,5.30
2023-04-09T13:20:44.229Z,5.47
2023-04-09T13:22:46.972Z,6.53
2023-04-09T13:24:48.581Z,6.07
2023-04-09T13:26:50.241Z,5.87
2023-04-09T13:28:53.374Z,5.10
2023-04-09T13:30:55.163Z,5.10
2023-04-09T13:32:56.839Z,4.83
2023-04-09T13:34:58.442Z,5.30
2023-04-09T13:37:00.024Z,5.03
2023-04-09T13:39:01.774Z,4.80
2023-04-09T13:41:03.566Z,4.77
2023-04-09T13:43:05.168Z,3.90
2023-04-09T13:45:08.945Z,4.80
2023-04-09T13:47:11.021Z,4.57
2023-04-09T13:49:12.617Z,5.10
2023-04-09T13:51:14.226Z,4.50
2023-04-09T13:53:15.775Z,4.20
2023-04-09T13:55:17.434Z,4.57
2023-04-09T13:57:18.985Z,4.60
2023-04-09T13:59:20.604Z,5.13
2023-04-09T14:01:23.569Z,5.20
2023-04-09T14:03:25.193Z,4.33
2023-04-09T14:05:26.800Z,4.57
2023-04-09T14:07:28.405Z,4.97
2023-04-09T14:09:30.043Z,5.57
2023-04-09T14:11:31.577Z,5.00
2023-04-09T14:13:33.119Z,5.37
2023-04-09T14:15:34.745Z,4.60
2023-04-09T14:17:37.826Z,4.80
2023-04-09T14:19:39.576Z,4.70
2023-04-09T14:21:41.281Z,4.27
2023-04-09T14:23:42.834Z,4.90
2023-04-09T14:25:44.807Z,4.27
2023-04-09T14:27:46.393Z,4.47
2023-04-09T14:29:47.936Z,4.93
2023-04-09T14:31:49.656Z,4.73
2023-04-09T14:33:52.770Z,4.50
2023-04-09T14:35:54.425Z,5.37
2023-04-09T14:37:55.925Z,5.30
2023-04-09T14:39:57.806Z,4.87
2023-04-09T14:41:59.339Z,4.87
2023-04-09T14:44:00.877Z,4.90
2023-04-09T14:46:02.497Z,5.00
2023-04-09T14:48:04.154Z,4.77
2023-04-09T14:50:08.253Z,4.67
2023-04-09T14:52:09.858Z,5.03
2023-04-09T14:54:11.386Z,4.80
2023-04-09T14:56:13.009Z,4.70
2023-04-09T14:58:14.560Z,5.37
2023-04-09T15:00:16.285Z,4.00
2023-04-09T15:02:17.900Z,4.23
2023-04-09T15:04:19.732Z,5.00
2023-04-09T15:06:26.117Z,5.40
2023-04-09T15:08:27.672Z,4.63
2023-04-09T15:10:29.231Z,4.90
2023-04-09T15:12:31.354Z,5.00
2023-04-09T15:14:32.921Z,5.73
2023-04-09T15:16:34.641Z,4.90
2023-04-09T15:18:36.294Z,4.90
2023-04-09T15:20:38.384Z,5.17
2023-04-09T15:22:41.396Z,4.10
2023-04-09T15:24:42.943Z,4.30
2023-04-09T15:26:44.445Z,5.23
2023-04-09T15:28:46.139Z,4.30
2023-04-09T15:30:47.711Z,4.13
2023-04-09T15:32:49.271Z,4.23
2023-04-09T15:34:50.877Z,4.40
2023-04-09T15:36:52.745Z,4.60
2023-04-09T15:38:55.831Z,4.43
2023-04-09T15:40:57.476Z,4.80
2023-04-09T15:42:59.111Z,4.67
2023-04-09T15:45:00.688Z,4.40
2023-04-09T15:47:02.277Z,5.00
2023-04-09T15:49:04.615Z,4.70
2023-04-09T15:51:06.399Z,4.83
2023-04-09T15:53:08.049Z,5.13
2023-04-09T15:55:11.312Z,4.70
2023-04-09T15:57:12.864Z,4.00
2023-04-09T15:59:14.401Z,4.00
2023-04-09T16:01:15.996Z,4.43
2023-04-09T16:03:18.393Z,4.70
2023-04-09T16:05:23.384Z,4.63
2023-04-09T16:07:24.976Z,5.27
2023-04-09T16:09:26.604Z,3.70
2023-04-09T16:11:29.482Z,4.10
2023-04-09T16:13:31.241Z,4.40
2023-04-09T16:15:32.895Z,5.20
2023-04-09T16:17:40.283Z,4.37
2023-04-09T16:19:43.141Z,4.60
2023-04-09T16:21:44.790Z,3.93
2023-04-09T16:23:46.333Z,4.87
2023-04-09T16:25:48.139Z,4.23
2023-04-09T16:27:51.185Z,4.83
2023-04-09T16:29:52.734Z,4.10
2023-04-09T16:31:54.359Z,5.20
2023-04-09T16:33:56.068Z,4.83
2023-04-09T16:35:57.643Z,4.80
2023-04-09T16:37:59.179Z,4.37
2023-04-09T16:40:00.739Z,4.80
2023-04-09T16:42:02.325Z,4.40
2023-04-09T16:44:05.278Z,4.73
2023-04-09T16:46:06.917Z,5.87
2023-04-09T16:48:08.565Z,4.30
2023-04-09T16:50:10.832Z,4.73
2023-04-09T16:52:12.382Z,4.13
2023-04-09T16:54:14.050Z,4.37
2023-04-09T16:56:15.612Z,4.20
2023-04-09T16:58:17.169Z,4.50
2023-04-09T17:00:20.203Z,4.23
2023-04-09T17:02:21.856Z,4.63
2023-04-09T17:04:23.654Z,4.30
2023-04-09T17:06:25.322Z,4.73
2023-04-09T17:08:26.923Z,4.50
2023-04-09T17:10:28.506Z,4.60
2023-04-09T17:12:30.099Z,4.87
2023-04-09T17:14:31.753Z,4.50
2023-04-09T17:16:34.640Z,4.37
2023-04-09T17:18:36.299Z,4.80
2023-04-09T17:20:37.871Z,4.80
2023-04-09T17:22:39.439Z,4.90
2023-04-09T17:24:40.971Z,5.13
2023-04-09T17:26:42.493Z,4.97
2023-04-09T17:28:44.260Z,6.80
2023-04-09T17:30:46.012Z,5.30
2023-04-09T17:32:49.747Z,5.90
2023-04-09T17:34:51.412Z,5.47
2023-04-09T17:36:53.028Z,4.60
2023-04-09T17:38:54.805Z,4.53
2023-04-09T17:40:56.535Z,4.47
2023-04-09T17:42:58.088Z,5.23
2023-04-09T17:44:59.632Z,4.87
2023-04-09T17:47:01.278Z,5.53
2023-04-09T17:49:04.315Z,5.07
2023-04-09T17:51:06.823Z,5.10
2023-04-09T17:53:08.341Z,5.10
2023-04-09T17:55:11.122Z,5.30
2023-04-09T17:57:15.062Z,4.40
2023-04-09T17:59:16.580Z,4.37
2023-04-09T18:01:18.532Z,4.70
2023-04-09T18:03:20.283Z,4.87
2023-04-09T18:05:23.562Z,5.20
2023-04-09T18:07:25.525Z,4.77
2023-04-09T18:09:27.033Z,5.50
2023-04-09T18:11:28.560Z,4.80
2023-04-09T18:13:30.138Z,5.27
2023-04-09T18:15:31.784Z,5.10
2023-04-09T18:17:33.396Z,5.57
2023-04-09T18:19:35.117Z,7.17
2023-04-09T18:21:37.982Z,5.47
2023-04-09T18:23:39.489Z,6.67
2023-04-09T18:25:41.117Z,6.53
2023-04-09T18:27:42.675Z,5.83
2023-04-09T18:29:44.354Z,5.50
2023-04-09T18:31:46.060Z,6.00
2023-04-09T18:33:47.797Z,5.13
2023-04-09T18:35:49.397Z,5.47
2023-04-09T18:37:52.342Z,5.90
2023-04-09T18:39:53.912Z,6.60
2023-04-09T18:41:55.470Z,8.00
2023-04-09T18:43:57.041Z,10.40
2023-04-09T18:45:58.683Z,11.37
2023-04-09T18:48:00.330Z,11.37
2023-04-09T18:50:01.965Z,13.17
2023-04-09T18:52:04.206Z,11.00
2023-04-09T18:54:07.106Z,11.70
2023-04-09T18:56:08.640Z,15.60
2023-04-09T18:58:11.025Z,12.43
2023-04-09T19:00:13.478Z,12.90
2023-04-09T19:02:15.238Z,9.80
2023-04-09T19:04:16.979Z,8.40
2023-04-09T19:06:20.726Z,8.47
2023-04-09T19:08:22.319Z,9.67
2023-04-09T19:10:25.359Z,7.83
2023-04-09T19:12:26.982Z,8.40
2023-04-09T19:14:28.578Z,8.60
2023-04-09T19:16:30.139Z,8.20
2023-04-09T19:18:31.972Z,8.93
2023-04-09T19:20:33.545Z,10.60
2023-04-09T19:22:35.066Z,10.90
2023-04-09T19:24:36.652Z,12.70
2023-04-09T19:26:39.580Z,9.50
2023-04-09T19:28:41.149Z,9.80
2023-04-09T19:30:42.714Z,10.20
2023-04-09T19:32:45.514Z,11.60
2023-04-09T19:34:47.153Z,10.13
2023-04-09T19:36:48.692Z,9.30
2023-04-09T19:38:50.563Z,9.03
2023-04-09T19:40:52.241Z,9.30
2023-04-09T19:42:55.134Z,14.30
2023-04-09T19:44:56.693Z,11.70
2023-04-09T19:46:58.384Z,9.93
2023-04-09T19:48:59.974Z,12.80
2023-04-09T19:51:01.621Z,11.63
2023-04-09T19:53:03.371Z,11.33
2023-04-09T19:55:05.924Z,11.70
2023-04-09T19:57:07.487Z,11.17
2023-04-09T19:59:10.379Z,10.90
2023-04-09T20:01:11.998Z,12.47
2023-04-09T20:03:13.842Z,14.03
2023-04-09T20:05:15.688Z,14.60
2023-04-09T20:07:17.162Z,11.30
2023-04-09T20:09:18.719Z,12.55
2023-04-09T20:11:20.311Z,11.27
2023-04-09T20:13:21.823Z,9.90
2023-04-09T20:15:24.992Z,10.37
2023-04-09T20:17:26.511Z,9.80
2023-04-09T20:19:28.078Z,10.00
2023-04-09T20:21:29.715Z,10.03
2023-04-09T20:23:31.328Z,9.47
2023-04-09T20:25:32.934Z,9.90
2023-04-09T20:27:34.480Z,9.67
2023-04-09T20:29:35.984Z,9.57
2023-04-09T20:31:39.001Z,8.83
2023-04-09T20:33:40.586Z,9.40
2023-04-09T20:35:42.120Z,8.60
2023-04-09T20:37:43.688Z,8.60
2023-04-09T20:39:45.232Z,8.37
2023-04-09T20:41:46.788Z,9.43
2023-04-09T20:43:48.287Z,8.60
2023-04-09T20:45:49.908Z,8.10
2023-04-09T20:47:52.847Z,7.83
2023-04-09T20:49:54.452Z,6.70
2023-04-09T20:51:56.050Z,7.43
2023-04-09T20:53:57.997Z,8.03
2023-04-09T20:55:59.553Z,8.20
2023-04-09T20:58:01.191Z,7.40
2023-04-09T21:00:02.743Z,7.43
2023-04-09T21:02:04.485Z,7.40
2023-04-09T21:04:07.802Z,8.57
2023-04-09T21:06:09.567Z,9.30
2023-04-09T21:08:11.074Z,8.87
2023-04-09T21:10:12.598Z,9.57
2023-04-09T21:12:14.116Z,8.57
2023-04-09T21:14:15.629Z,8.70
2023-04-09T21:16:17.649Z,9.07
2023-04-09T21:18:19.463Z,9.73
2023-04-09T21:20:22.400Z,8.57
2023-04-09T21:22:24.018Z,8.90
2023-04-09T21:24:25.567Z,8.80
2023-04-09T21:26:28.117Z,9.23
2023-04-09T21:28:31.742Z,8.75
2023-04-09T21:30:33.427Z,8.83
2023-04-09T21:32:34.968Z,9.00
2023-04-09T21:34:36.530Z,7.40
2023-04-09T21:36:39.503Z,8.30
2023-04-09T21:38:41.167Z,7.93
2023-04-09T21:40:42.728Z,8.23
2023-04-09T21:42:44.265Z,9.10
2023-04-09T21:44:45.835Z,8.00
2023-04-09T21:46:47.532Z,9.80
2023-04-09T21:48:49.088Z,8.40
2023-04-09T21:50:50.666Z,8.50
2023-04-09T21:52:53.580Z,8.73
2023-04-09T21:54:55.178Z,9.07
2023-04-09T21:56:56.722Z,9.53
2023-04-09T21:58:58.288Z,8.40
2023-04-09T22:00:59.917Z,8.90
2023-04-09T22:03:01.776Z,9.00
2023-04-09T22:05:04.083Z,9.45
2023-04-09T22:07:05.708Z,9.37
2023-04-09T22:09:08.645Z,8.40
2023-04-09T22:11:10.272Z,9.50
2023-04-09T22:13:11.814Z,9.40
2023-04-09T22:15:13.389Z,10.13
2023-04-09T22:17:14.969Z,8.73
2023-04-09T22:19:16.539Z,9.40
2023-04-09T22:21:18.195Z,9.50
2023-04-09T22:23:19.770Z,10.13
2023-04-09T22:25:22.853Z,9.33
2023-04-09T22:27:24.619Z,9.57
2023-04-09T22:29:26.778Z,9.50
2023-04-09T22:31:28.416Z,9.70
2023-04-09T22:33:30.133Z,9.00
2023-04-09T22:35:32.215Z,8.33
2023-04-09T22:37:33.799Z,8.55
2023-04-09T22:39:35.293Z,9.20
2023-04-09T22:41:38.484Z,8.50
2023-04-09T22:43:39.988Z,8.93
2023-04-09T22:45:41.546Z,8.60
2023-04-09T22:47:43.131Z,8.20
2023-04-09T22:49:44.737Z,9.57
2023-04-09T22:51:46.287Z,9.90
2023-04-09T22:53:47.849Z,9.80
2023-04-09T22:55:51.028Z,8.87
2023-04-09T22:57:54.123Z,9.88
2023-04-09T22:59:55.742Z,10.13
2023-04-09T23:01:57.343Z,10.47
2023-04-09T23:03:58.925Z,10.55
2023-04-09T23:06:00.646Z,10.70
2023-04-09T23:08:02.250Z,11.90
2023-04-09T23:10:04.122Z,12.10
2023-04-09T23:12:05.689Z,11.10
2023-04-09T23:14:08.612Z,11.97
2023-04-09T23:16:10.609Z,9.98
2023-04-09T23:18:12.257Z,10.10
2023-04-09T23:20:13.901Z,11.20
2023-04-09T23:22:15.494Z,10.93
2023-04-09T23:24:17.069Z,9.90
2023-04-09T23:26:18.728Z,9.52
2023-04-09T23:28:20.249Z,11.68
2023-04-09T23:30:23.194Z,11.47
2023-04-09T23:32:24.787Z,10.57
2023-04-09T23:34:26.305Z,9.65
2023-04-09T23:36:28.246Z,10.17
2023-04-09T23:38:29.814Z,10.70
2023-04-09T23:40:31.336Z,10.53
2023-04-09T23:42:33.125Z,11.23
2023-04-09T23:44:34.709Z,11.37
2023-04-09T23:46:37.722Z,9.30
2023-04-09T23:48:39.797Z,11.10
2023-04-09T23:50:41.788Z,10.67
2023-04-09T23:52:47.345Z,11.23
2023-04-09T23:54:49.124Z,10.20
2023-04-09T23:56:50.645Z,11.50
2023-04-09T23:58:52.126Z,10.60
